Time;durP1;ratioP1;P1;durP2;ratioP2;P2;SDS_P1;SDS_P2;PMS_P1;PMS_P2;Temp;Humidity;BMP_temperature;BMP_pressure;BME280_temperature;BME280_humidity;BME280_pressure;Samples;Min_cycle;Max_cycle;Signal;HPM_P1;HPM_P2
2022/05/16 00:00:59;;;;;;;4.65;1.52;;;16.20;81.20;;;;;;4987928;28;20463;-50
2022/05/16 00:03:25;;;;;;;6.95;1.75;;;16.20;81.30;;;;;;4988639;28;20484;-47
2022/05/16 00:05:52;;;;;;;5.00;1.92;;;16.20;82.20;;;;;;4988480;28;20038;-51
2022/05/16 00:08:17;;;;;;;4.85;1.60;;;16.10;82.50;;;;;;4989022;28;20106;-46
2022/05/16 00:10:43;;;;;;;6.50;1.65;;;16.10;82.00;;;;;;4984205;28;20050;-51
2022/05/16 00:13:09;;;;;;;6.70;1.65;;;16.10;83.50;;;;;;4983191;28;20050;-46
2022/05/16 00:15:35;;;;;;;5.72;1.77;;;16.00;83.60;;;;;;4983517;28;20054;-48
2022/05/16 00:18:02;;;;;;;4.68;1.25;;;16.00;82.80;;;;;;4984082;28;20504;-48
2022/05/16 00:20:27;;;;;;;6.72;1.77;;;16.00;83.50;;;;;;4988224;28;20038;-47
2022/05/16 00:22:53;;;;;;;6.28;1.60;;;16.00;83.50;;;;;;4971080;28;20409;-50
2022/05/16 00:25:19;;;;;;;5.95;1.75;;;15.90;84.80;;;;;;4990663;28;20092;-50
2022/05/16 00:27:45;;;;;;;5.22;1.63;;;15.90;84.60;;;;;;4971868;28;20046;-50
2022/05/16 00:30:14;;;;;;;7.32;2.17;;;15.90;84.60;;;;;;4987547;28;20099;-50
2022/05/16 00:32:41;;;;;;;6.55;1.80;;;15.90;85.90;;;;;;4972437;28;20466;-52
2022/05/16 00:35:09;;;;;;;8.05;2.22;;;15.80;84.40;;;;;;4970861;28;20050;-50
2022/05/16 00:37:34;;;;;;;5.88;2.33;;;15.80;85.10;;;;;;4984697;28;20073;-49
2022/05/16 00:40:00;;;;;;;6.40;2.00;;;15.70;84.80;;;;;;4989428;28;20566;-47
2022/05/16 00:42:26;;;;;;;9.35;2.38;;;15.70;85.10;;;;;;4990086;28;20088;-50
2022/05/16 00:44:52;;;;;;;6.45;1.90;;;15.70;85.30;;;;;;4986856;28;20561;-49
2022/05/16 00:47:17;;;;;;;8.45;1.92;;;15.70;85.30;;;;;;4971495;28;20455;-50
2022/05/16 00:49:47;;;;;;;5.32;1.98;;;15.80;85.10;;;;;;4984639;28;20050;-50
2022/05/16 00:52:20;;;;;;;5.88;1.80;;;15.70;86.20;;;;;;4987730;28;20074;-51
2022/05/16 00:55:12;;;;;;;6.90;2.03;;;15.70;86.70;;;;;;4987429;28;20046;-49
2022/05/16 00:57:42;;;;;;;4.90;1.67;;;15.70;87.80;;;;;;4980744;28;20078;-51
2022/05/16 01:00:38;;;;;;;4.50;1.85;;;15.70;86.00;;;;;;4986322;28;20046;-50
2022/05/16 01:06:03;;;;;;;5.15;1.95;;;15.70;87.20;;;;;;4987307;28;20069;-48
2022/05/16 01:08:31;;;;;;;6.85;1.77;;;15.60;85.80;;;;;;4990343;28;20045;-51
2022/05/16 01:11:02;;;;;;;6.22;2.13;;;15.60;86.40;;;;;;4983159;28;20042;-49
2022/05/16 01:13:30;;;;;;;7.30;2.17;;;15.60;86.80;;;;;;4988884;28;20104;-51
2022/05/16 01:15:58;;;;;;;5.65;2.28;;;15.60;86.80;;;;;;4987220;28;20042;-48
2022/05/16 01:18:25;;;;;;;5.50;1.80;;;15.50;86.50;;;;;;4988363;28;20066;-51
2022/05/16 01:21:06;;;;;;;7.10;2.25;;;15.50;87.00;;;;;;4989821;28;20045;-50
2022/05/16 01:23:40;;;;;;;6.10;1.73;;;15.50;87.30;;;;;;4987534;28;20057;-48
2022/05/16 01:26:12;;;;;;;5.25;1.75;;;15.40;87.50;;;;;;4970113;28;20372;-47
2022/05/16 01:28:38;;;;;;;6.65;1.90;;;15.40;87.60;;;;;;4966656;28;20120;-48
2022/05/16 01:31:04;;;;;;;7.43;1.67;;;15.40;86.80;;;;;;4969581;28;20046;-52
2022/05/16 01:33:30;;;;;;;8.40;2.15;;;15.40;87.00;;;;;;4984499;28;20488;-50
2022/05/16 01:35:56;;;;;;;9.10;2.13;;;15.30;87.70;;;;;;4969392;28;20038;-46
2022/05/16 01:38:26;;;;;;;8.02;2.30;;;15.30;88.50;;;;;;4969039;28;20038;-48
2022/05/16 01:40:57;;;;;;;5.25;2.03;;;15.20;88.50;;;;;;4985900;28;20125;-49
2022/05/16 01:43:27;;;;;;;9.13;2.33;;;15.20;89.50;;;;;;4987316;28;20092;-48
2022/05/16 01:45:53;;;;;;;7.47;1.75;;;15.20;89.70;;;;;;4984576;28;20578;-51
2022/05/16 01:48:20;;;;;;;7.43;2.40;;;15.20;89.50;;;;;;4987068;28;20048;-51
2022/05/16 01:50:47;;;;;;;7.15;1.90;;;15.10;89.50;;;;;;4986924;28;20046;-51
2022/05/16 01:53:14;;;;;;;4.90;1.50;;;15.10;89.60;;;;;;4988763;28;20030;-49
2022/05/16 01:55:39;;;;;;;6.05;1.88;;;15.10;90.20;;;;;;4986049;28;20305;-51
2022/05/16 01:58:06;;;;;;;5.03;2.20;;;15.00;90.10;;;;;;4982419;28;20047;-50
2022/05/16 02:00:33;;;;;;;5.50;1.88;;;15.00;90.50;;;;;;4985443;28;20050;-49
2022/05/16 02:03:00;;;;;;;5.25;1.90;;;14.90;90.70;;;;;;4979087;28;20737;-52
2022/05/16 02:05:26;;;;;;;6.40;2.20;;;14.90;90.70;;;;;;4971198;28;20364;-52
2022/05/16 02:07:52;;;;;;;6.57;2.20;;;14.90;91.00;;;;;;4990554;28;20126;-50
2022/05/16 02:10:20;;;;;;;6.00;2.00;;;14.90;90.90;;;;;;4987036;28;20129;-48
2022/05/16 02:12:47;;;;;;;8.18;2.45;;;14.90;91.30;;;;;;4989202;28;20038;-50
2022/05/16 02:15:18;;;;;;;4.90;1.92;;;14.80;91.10;;;;;;4987926;28;20061;-44
2022/05/16 02:17:45;;;;;;;6.47;2.15;;;14.80;91.00;;;;;;4987146;28;20559;-50
2022/05/16 02:20:11;;;;;;;7.88;2.20;;;14.70;90.90;;;;;;4969791;28;20472;-50
2022/05/16 02:25:21;;;;;;;7.35;2.15;;;14.70;91.10;;;;;;4988280;28;20042;-48
2022/05/16 02:27:49;;;;;;;4.97;1.73;;;14.70;91.20;;;;;;4985763;28;20041;-52
2022/05/16 02:30:15;;;;;;;5.38;1.85;;;14.70;91.30;;;;;;4989794;28;20038;-51
2022/05/16 02:32:41;;;;;;;5.70;1.83;;;14.70;90.80;;;;;;4988960;28;20507;-49
2022/05/16 02:35:07;;;;;;;7.30;2.22;;;14.70;90.80;;;;;;4986159;28;20048;-46
2022/05/16 02:37:33;;;;;;;8.20;2.05;;;14.70;90.80;;;;;;4990848;28;20042;-49
2022/05/16 02:39:58;;;;;;;7.72;2.05;;;14.60;90.70;;;;;;4986498;28;20378;-48
2022/05/16 02:42:24;;;;;;;5.70;1.75;;;14.60;90.80;;;;;;4985811;28;20034;-50
2022/05/16 02:44:52;;;;;;;6.80;2.00;;;14.60;90.80;;;;;;4983444;28;20447;-48
2022/05/16 02:47:19;;;;;;;9.45;2.13;;;14.60;90.50;;;;;;4988933;28;20125;-48
2022/05/16 02:49:45;;;;;;;4.72;1.70;;;14.60;90.50;;;;;;4971874;28;20045;-46
2022/05/16 02:52:11;;;;;;;6.47;1.95;;;14.60;90.50;;;;;;4989479;28;20042;-49
2022/05/16 02:54:37;;;;;;;5.95;1.70;;;14.50;90.60;;;;;;4986462;28;20038;-50
2022/05/16 02:57:04;;;;;;;5.70;1.85;;;14.50;90.60;;;;;;4956580;28;20502;-47
2022/05/16 02:59:32;;;;;;;5.53;1.98;;;14.50;90.50;;;;;;4986933;28;20056;-49
2022/05/16 03:02:04;;;;;;;7.97;2.33;;;14.50;90.70;;;;;;4971341;28;20464;-48
2022/05/16 03:04:31;;;;;;;6.78;1.60;;;14.50;90.80;;;;;;4987730;28;20038;-47
2022/05/16 03:06:57;;;;;;;6.07;1.60;;;14.50;90.50;;;;;;4983773;28;20076;-46
2022/05/16 03:09:24;;;;;;;5.15;1.80;;;14.50;90.60;;;;;;4987113;28;21125;-47
2022/05/16 03:11:49;;;;;;;6.20;1.65;;;14.40;90.60;;;;;;4989239;28;20042;-53
2022/05/16 03:14:16;;;;;;;7.18;2.00;;;14.40;90.70;;;;;;4988182;28;20038;-50
2022/05/16 03:16:41;;;;;;;7.13;2.28;;;14.40;90.80;;;;;;4984160;28;20034;-49
2022/05/16 03:19:07;;;;;;;7.93;2.85;;;14.40;90.90;;;;;;4988286;28;20393;-47
2022/05/16 03:21:33;;;;;;;12.07;1.85;;;14.40;90.70;;;;;;4989448;28;20034;-50
2022/05/16 03:23:59;;;;;;;5.35;1.88;;;14.40;90.80;;;;;;4988716;28;20463;-49
2022/05/16 03:26:26;;;;;;;7.40;1.73;;;14.30;90.90;;;;;;4986509;28;20113;-49
2022/05/16 03:28:52;;;;;;;6.35;2.15;;;14.30;91.10;;;;;;4985480;28;20395;-48
2022/05/16 03:31:18;;;;;;;8.70;1.77;;;14.20;91.00;;;;;;4987371;28;20112;-56
2022/05/16 03:33:44;;;;;;;8.65;2.00;;;14.20;91.10;;;;;;4972251;28;20110;-46
2022/05/16 03:36:09;;;;;;;7.00;2.15;;;14.30;91.10;;;;;;4988139;28;20077;-49
2022/05/16 03:41:21;;;;;;;8.93;3.03;;;14.20;91.10;;;;;;4989011;28;20070;-46
2022/05/16 03:43:47;;;;;;;6.43;2.00;;;14.30;91.00;;;;;;4987423;28;20452;-56
2022/05/16 03:46:13;;;;;;;8.18;2.08;;;14.20;90.80;;;;;;4987565;28;20145;-48
2022/05/16 03:48:39;;;;;;;8.32;1.63;;;14.30;90.70;;;;;;4983466;28;20133;-46
2022/05/16 03:51:07;;;;;;;7.32;2.00;;;14.20;90.70;;;;;;4970619;28;20082;-46
2022/05/16 03:53:35;;;;;;;6.38;2.20;;;14.20;91.00;;;;;;4987028;28;20108;-48
2022/05/16 03:56:01;;;;;;;7.07;1.80;;;14.20;90.90;;;;;;4987957;28;20038;-48
2022/05/16 03:58:26;;;;;;;6.43;1.83;;;14.10;91.00;;;;;;4988695;28;20054;-50
2022/05/16 04:00:52;;;;;;;4.53;1.60;;;14.10;91.30;;;;;;4985749;28;20514;-49
2022/05/16 04:03:17;;;;;;;6.00;1.85;;;14.10;91.20;;;;;;4985973;28;20364;-47
2022/05/16 04:05:43;;;;;;;6.40;1.83;;;14.10;91.40;;;;;;4987519;28;20065;-52
2022/05/16 04:08:09;;;;;;;4.60;1.85;;;14.10;91.30;;;;;;4968303;28;20103;-45
2022/05/16 04:10:35;;;;;;;6.32;1.95;;;14.10;91.40;;;;;;4971526;28;20042;-47
2022/05/16 04:13:00;;;;;;;7.07;1.95;;;14.10;91.50;;;;;;4970691;28;20510;-49
2022/05/16 04:15:26;;;;;;;4.88;1.88;;;14.10;91.80;;;;;;4989737;28;20042;-46
2022/05/16 04:17:52;;;;;;;4.07;1.60;;;14.10;91.60;;;;;;4985581;28;20057;-50
2022/05/16 04:20:19;;;;;;;5.95;2.03;;;14.20;91.30;;;;;;4984072;28;20030;-45
2022/05/16 04:22:45;;;;;;;12.63;3.15;;;14.20;91.50;;;;;;4986155;28;20126;-50
2022/05/16 04:25:15;;;;;;;6.88;1.88;;;14.20;91.60;;;;;;4970942;28;20046;-49
2022/05/16 04:27:41;;;;;;;5.07;1.70;;;14.20;91.70;;;;;;4984951;28;20120;-46
2022/05/16 04:30:08;;;;;;;7.00;2.00;;;14.20;91.80;;;;;;4982656;28;20838;-50
2022/05/16 04:32:34;;;;;;;5.57;1.98;;;14.20;91.50;;;;;;4983229;28;20038;-50
2022/05/16 04:35:01;;;;;;;4.40;1.50;;;14.20;91.50;;;;;;4985167;28;20121;-49
2022/05/16 04:37:32;;;;;;;8.40;2.10;;;14.10;91.70;;;;;;4969528;28;20042;-44
2022/05/16 04:40:02;;;;;;;4.78;1.77;;;14.20;91.50;;;;;;4984555;28;20137;-45
2022/05/16 04:42:40;;;;;;;6.35;2.13;;;14.20;91.90;;;;;;4982930;28;20066;-47
2022/05/16 04:45:15;;;;;;;5.68;1.90;;;14.20;91.60;;;;;;4967450;28;20464;-46
2022/05/16 04:47:42;;;;;;;8.25;2.30;;;14.20;91.60;;;;;;4977500;28;20134;-46
2022/05/16 04:50:09;;;;;;;5.63;1.88;;;14.30;91.30;;;;;;4986061;28;20116;-43
2022/05/16 04:52:35;;;;;;;5.25;2.08;;;14.30;91.30;;;;;;4982911;28;20099;-47
2022/05/16 04:55:01;;;;;;;8.43;2.10;;;14.30;91.20;;;;;;4967753;28;20046;-48
2022/05/16 04:57:27;;;;;;;5.70;1.90;;;14.30;91.20;;;;;;4984269;28;20039;-49
2022/05/16 04:59:53;;;;;;;7.85;2.20;;;14.40;91.00;;;;;;4986804;28;20161;-45
2022/05/16 05:02:18;;;;;;;5.68;2.00;;;14.40;90.90;;;;;;4985633;28;20042;-49
2022/05/16 05:04:44;;;;;;;9.27;2.67;;;14.40;90.80;;;;;;4984737;28;20436;-42
2022/05/16 05:07:12;;;;;;;5.15;1.77;;;14.50;91.00;;;;;;4982229;28;20125;-45
2022/05/16 05:15:10;;;;;;;6.82;2.15;;;14.70;90.20;;;;;;4984589;28;20050;-51
2022/05/16 05:17:37;;;;;;;7.50;1.95;;;14.80;90.10;;;;;;4986114;28;20046;-50
2022/05/16 05:20:04;;;;;;;7.07;2.03;;;14.90;90.00;;;;;;4985829;28;20057;-48
2022/05/16 05:22:30;;;;;;;7.10;2.17;;;14.90;89.50;;;;;;4985401;28;20042;-50
2022/05/16 05:24:55;;;;;;;9.52;2.17;;;15.00;89.50;;;;;;4985438;28;20494;-46
2022/05/16 05:27:21;;;;;;;7.25;2.35;;;15.10;88.90;;;;;;4985951;28;20034;-49
2022/05/16 05:29:51;;;;;;;7.97;2.55;;;15.10;89.30;;;;;;4968944;28;20475;-50
2022/05/16 05:32:16;;;;;;;5.93;1.90;;;15.20;87.80;;;;;;4980649;28;20077;-51
2022/05/16 05:34:42;;;;;;;8.50;2.08;;;15.30;87.50;;;;;;4985004;28;20073;-51
2022/05/16 05:37:08;;;;;;;7.97;2.53;;;15.40;88.10;;;;;;4981048;28;20391;-42
2022/05/16 05:39:35;;;;;;;9.40;2.40;;;15.40;86.40;;;;;;4983967;28;20372;-47
2022/05/16 05:42:01;;;;;;;7.43;2.10;;;15.50;86.20;;;;;;4986560;28;20089;-46
2022/05/16 05:44:27;;;;;;;5.72;1.67;;;15.60;85.80;;;;;;4964740;28;20049;-48
2022/05/16 05:46:53;;;;;;;7.15;1.98;;;15.60;85.20;;;;;;4983943;28;20448;-44
2022/05/16 05:49:19;;;;;;;6.03;2.15;;;15.70;84.50;;;;;;4986373;28;20511;-48
2022/05/16 05:51:44;;;;;;;6.93;2.40;;;15.80;84.10;;;;;;4979089;28;20427;-46
2022/05/16 05:54:10;;;;;;;9.50;2.05;;;15.90;83.40;;;;;;4981792;28;20096;-50
2022/05/16 05:56:37;;;;;;;5.97;2.08;;;16.00;82.60;;;;;;4966211;28;20092;-49
2022/05/16 05:59:03;;;;;;;8.52;2.00;;;16.00;82.30;;;;;;4984402;28;20180;-49
2022/05/16 06:01:29;;;;;;;10.27;1.75;;;16.00;82.40;;;;;;4984483;28;20861;-46
2022/05/16 06:03:55;;;;;;;8.27;2.40;;;16.10;82.50;;;;;;4982105;28;20030;-51
2022/05/16 06:06:20;;;;;;;5.85;1.92;;;16.20;81.80;;;;;;4984357;28;20163;-50
2022/05/16 06:08:46;;;;;;;8.55;2.17;;;16.20;81.20;;;;;;4961218;28;20476;-48
2022/05/16 06:11:12;;;;;;;6.35;2.00;;;16.30;81.50;;;;;;4981659;28;20037;-52
2022/05/16 06:13:38;;;;;;;9.65;2.20;;;16.30;81.10;;;;;;4982034;28;20042;-52
2022/05/16 06:16:08;;;;;;;6.25;1.92;;;16.50;80.40;;;;;;4964614;28;20434;-50
2022/05/16 06:18:34;;;;;;;9.52;2.00;;;16.50;79.80;;;;;;4964263;28;20042;-50
2022/05/16 06:21:01;;;;;;;8.90;1.90;;;16.60;79.70;;;;;;4984365;28;20108;-50
2022/05/16 06:23:26;;;;;;;8.27;2.35;;;16.70;79.30;;;;;;4983516;28;20066;-50
2022/05/16 06:25:53;;;;;;;6.85;2.00;;;16.70;78.90;;;;;;4985847;28;20068;-52
2022/05/16 06:28:24;;;;;;;6.95;1.75;;;16.80;78.50;;;;;;4985228;28;20096;-50
2022/05/16 06:30:52;;;;;;;5.60;2.10;;;16.90;78.20;;;;;;4981157;28;20547;-51
2022/05/16 06:33:20;;;;;;;5.95;1.90;;;17.00;77.50;;;;;;4988182;28;20034;-52
2022/05/16 06:35:47;;;;;;;7.38;2.10;;;17.10;76.60;;;;;;4984058;28;20039;-51
2022/05/16 06:38:20;;;;;;;8.38;2.33;;;17.20;75.60;;;;;;4983693;28;20043;-51
2022/05/16 06:40:46;;;;;;;4.95;1.88;;;17.30;74.70;;;;;;4979037;28;20097;-50
2022/05/16 06:43:12;;;;;;;8.43;2.30;;;17.40;74.70;;;;;;4982013;28;20034;-48
2022/05/16 06:45:39;;;;;;;6.68;2.05;;;17.60;74.80;;;;;;4982577;28;20088;-49
2022/05/16 06:48:05;;;;;;;5.47;1.95;;;17.70;74.00;;;;;;4982659;28;20540;-50
2022/05/16 06:50:32;;;;;;;6.05;2.10;;;17.80;72.70;;;;;;4990012;28;20213;-51
2022/05/16 06:52:58;;;;;;;6.95;2.28;;;17.90;72.10;;;;;;4986808;28;20456;-51
2022/05/16 06:55:24;;;;;;;7.13;2.13;;;18.00;71.70;;;;;;4984633;28;20043;-48
2022/05/16 06:57:50;;;;;;;7.97;2.20;;;18.10;70.70;;;;;;4970384;28;20050;-51
2022/05/16 07:00:17;;;;;;;6.03;1.80;;;18.20;70.10;;;;;;4985294;28;20046;-46
2022/05/16 07:02:43;;;;;;;6.35;1.90;;;18.20;70.20;;;;;;4971070;28;20034;-50
2022/05/16 07:05:09;;;;;;;4.13;1.67;;;18.30;70.00;;;;;;4985900;28;20031;-50
2022/05/16 07:07:35;;;;;;;8.50;1.80;;;18.40;70.20;;;;;;4966544;28;20133;-50
2022/05/16 07:10:02;;;;;;;6.50;1.70;;;18.50;70.10;;;;;;4986179;28;20109;-42
2022/05/16 07:12:28;;;;;;;4.38;1.85;;;18.60;69.70;;;;;;4983898;28;20081;-50
2022/05/16 07:14:53;;;;;;;6.50;1.90;;;18.80;69.00;;;;;;4984900;28;20045;-49
2022/05/16 07:17:19;;;;;;;5.15;1.95;;;18.90;67.50;;;;;;4983746;28;20042;-50
2022/05/16 07:19:46;;;;;;;6.45;1.67;;;19.00;66.80;;;;;;4980183;28;20030;-48
2022/05/16 07:22:23;;;;;;;6.93;1.90;;;19.20;65.80;;;;;;4985549;28;20042;-50
2022/05/16 07:24:51;;;;;;;6.18;1.90;;;19.20;64.90;;;;;;4967498;28;20049;-50
2022/05/16 07:30:07;;;;;;;6.30;2.03;;;19.50;64.90;;;;;;4977850;28;20042;-49
2022/05/16 07:32:44;;;;;;;8.63;2.03;;;19.60;63.60;;;;;;4983753;28;20427;-50
2022/05/16 07:35:17;;;;;;;8.30;2.22;;;19.70;62.20;;;;;;4985977;28;20121;-48
2022/05/16 07:37:47;;;;;;;6.70;1.90;;;19.80;62.00;;;;;;4987630;28;20400;-50
2022/05/16 07:40:14;;;;;;;7.00;1.90;;;19.90;62.20;;;;;;4989414;28;20038;-51
2022/05/16 07:42:40;;;;;;;25.30;3.63;;;20.00;62.10;;;;;;4989336;28;20042;-50
2022/05/16 07:45:07;;;;;;;4.88;2.03;;;20.10;61.60;;;;;;4989196;28;20057;-50
2022/05/16 07:47:33;;;;;;;7.32;2.17;;;20.30;61.20;;;;;;4988225;28;20223;-50
2022/05/16 07:50:00;;;;;;;7.32;2.10;;;20.40;60.10;;;;;;4987977;28;20069;-46
2022/05/16 07:52:27;;;;;;;7.10;1.90;;;20.50;59.70;;;;;;4987798;28;20133;-48
2022/05/16 07:54:54;;;;;;;11.02;3.15;;;20.70;59.30;;;;;;4985197;28;20061;-45
2022/05/16 07:57:20;;;;;;;10.15;2.70;;;20.80;58.80;;;;;;4987514;28;20128;-46
2022/05/16 07:59:46;;;;;;;11.18;2.05;;;21.00;58.00;;;;;;4983202;28;20058;-48
2022/05/16 08:02:13;;;;;;;8.45;2.38;;;21.20;57.90;;;;;;4968826;28;20042;-49
2022/05/16 08:04:39;;;;;;;7.82;1.90;;;21.30;57.50;;;;;;4985503;28;20072;-52
2022/05/16 08:07:06;;;;;;;5.40;1.77;;;21.50;56.30;;;;;;4983532;28;20034;-52
2022/05/16 08:12:32;;;;;;;6.88;2.22;;;21.80;56.10;;;;;;4986063;28;20060;-44
2022/05/16 08:14:58;;;;;;;8.55;2.20;;;22.00;54.20;;;;;;4988366;28;20850;-46
2022/05/16 08:17:24;;;;;;;7.32;1.85;;;22.10;54.20;;;;;;4989513;28;20426;-46
2022/05/16 08:19:50;;;;;;;6.70;2.00;;;22.30;54.10;;;;;;4990212;28;20121;-47
2022/05/16 08:22:17;;;;;;;7.05;2.05;;;22.40;53.70;;;;;;4985308;28;20475;-46
2022/05/16 08:24:43;;;;;;;10.38;2.17;;;22.50;52.90;;;;;;4987581;28;20113;-51
2022/05/16 08:27:09;;;;;;;6.15;1.85;;;22.60;52.60;;;;;;4988236;28;20603;-51
2022/05/16 08:29:35;;;;;;;6.55;2.22;;;22.70;52.70;;;;;;4981180;28;20058;-48
2022/05/16 08:32:03;;;;;;;4.85;1.85;;;22.90;52.00;;;;;;4979886;28;20392;-45
2022/05/16 08:34:30;;;;;;;8.65;2.45;;;23.00;51.00;;;;;;4987067;28;20046;-50
2022/05/16 08:39:55;;;;;;;6.38;2.20;;;23.20;49.70;;;;;;4979514;28;20128;-47
2022/05/16 08:42:41;;;;;;;6.20;2.58;;;23.20;49.20;;;;;;4985352;28;20500;-50
2022/05/16 08:45:35;;;;;;;5.75;2.00;;;23.20;47.60;;;;;;4944580;28;20046;-51
2022/05/16 08:48:24;;;;;;;4.43;1.92;;;23.20;48.00;;;;;;4980718;28;20057;-49
2022/05/16 08:51:05;;;;;;;4.75;2.15;;;23.30;48.50;;;;;;4981457;28;20125;-47
2022/05/16 08:53:45;;;;;;;10.10;2.30;;;23.30;48.90;;;;;;4985344;28;20042;-47
2022/05/16 08:56:19;;;;;;;10.95;2.17;;;23.40;49.10;;;;;;4985092;28;20030;-50
2022/05/16 08:59:09;;;;;;;6.88;2.10;;;23.40;49.30;;;;;;4981936;28;20149;-48
2022/05/16 09:01:49;;;;;;;5.53;2.10;;;23.40;48.30;;;;;;4986344;28;20050;-48
2022/05/16 09:04:46;;;;;;;15.60;2.28;;;23.40;48.40;;;;;;4980391;28;20495;-47
2022/05/16 09:07:27;;;;;;;7.82;2.55;;;23.40;48.60;;;;;;4979346;28;20068;-48
2022/05/16 09:10:19;;;;;;;6.15;2.53;;;23.50;49.10;;;;;;4985902;28;20070;-52
2022/05/16 09:13:13;;;;;;;7.05;2.53;;;23.50;47.80;;;;;;4985123;28;20042;-50
2022/05/16 09:15:51;;;;;;;8.73;2.63;;;23.50;47.90;;;;;;4987285;28;20062;-49
2022/05/16 09:18:40;;;;;;;8.80;2.60;;;23.60;48.40;;;;;;4986552;28;20403;-48
2022/05/16 09:21:12;;;;;;;8.20;2.65;;;23.60;49.60;;;;;;4986830;28;20448;-50
2022/05/16 09:23:50;;;;;;;;;;;23.70;49.10;;;;;;4984808;28;20038;-49
2022/05/16 09:26:48;;;;;;;6.32;2.50;;;23.60;49.00;;;;;;4982788;28;20398;-52
2022/05/16 09:29:23;;;;;;;4.28;2.08;;;23.60;49.40;;;;;;4963565;28;20050;-52
2022/05/16 09:31:52;;;;;;;7.97;2.38;;;23.70;49.20;;;;;;4981297;28;20440;-47
2022/05/16 09:34:18;;;;;;;12.73;2.75;;;23.70;49.40;;;;;;4983811;28;20030;-51
2022/05/16 09:36:48;;;;;;;11.77;2.75;;;23.70;49.40;;;;;;4986021;28;20089;-51
2022/05/16 09:39:23;;;;;;;6.38;2.22;;;23.60;49.10;;;;;;4984218;28;20046;-52
2022/05/16 09:41:58;;;;;;;5.30;2.38;;;23.40;49.40;;;;;;4980393;28;20038;-52
2022/05/16 09:44:45;;;;;;;7.53;2.70;;;23.30;49.50;;;;;;4988144;28;20431;-52
2022/05/16 09:47:34;;;;;;;8.60;3.03;;;23.20;50.00;;;;;;4989467;28;21698;-48
2022/05/16 09:50:02;;;;;;;5.35;2.15;;;23.00;51.70;;;;;;4985174;28;20123;-49
2022/05/16 09:52:35;;;;;;;7.20;2.72;;;22.90;52.40;;;;;;4982693;28;20038;-51
2022/05/16 09:55:12;;;;;;;8.82;2.58;;;22.80;53.10;;;;;;4985398;28;20043;-49
2022/05/16 09:57:54;;;;;;;6.65;2.75;;;22.70;54.80;;;;;;4987634;28;20611;-50
2022/05/16 10:00:31;;;;;;;3.67;1.75;;;22.60;57.90;;;;;;4987754;28;20404;-46
2022/05/16 10:03:20;;;;;;;6.70;2.67;;;22.60;59.20;;;;;;4984446;28;20039;-49
2022/05/16 10:05:47;;;;;;;5.85;2.60;;;22.70;62.30;;;;;;4963218;28;20141;-46
2022/05/16 10:08:22;;;;;;;7.30;2.97;;;22.70;59.30;;;;;;4982747;28;20530;-51
2022/05/16 10:10:48;;;;;;;6.03;2.92;;;22.80;59.40;;;;;;4986572;28;20070;-46
2022/05/16 10:13:16;;;;;;;7.40;3.20;;;22.90;60.70;;;;;;4987650;28;20073;-47
2022/05/16 10:15:43;;;;;;;8.50;3.38;;;23.00;61.00;;;;;;4985828;28;20161;-47
2022/05/16 10:18:16;;;;;;;7.97;3.10;;;23.00;60.40;;;;;;4978175;28;20478;-48
2022/05/16 10:20:46;;;;;;;7.20;3.50;;;23.00;58.20;;;;;;4985944;28;20042;-48
2022/05/16 10:23:21;;;;;;;8.02;3.38;;;23.00;59.20;;;;;;4977817;28;20039;-49
2022/05/16 10:25:49;;;;;;;6.40;3.03;;;22.80;57.90;;;;;;4988435;28;20039;-46
2022/05/16 10:28:20;;;;;;;8.57;3.00;;;22.70;58.10;;;;;;4989339;28;20529;-52
2022/05/16 10:33:33;;;;;;;8.85;3.17;;;22.70;57.90;;;;;;4989829;28;20159;-46
2022/05/16 10:36:05;;;;;;;8.15;2.70;;;22.80;57.90;;;;;;4987128;28;20039;-50
2022/05/16 10:38:47;;;;;;;8.73;2.43;;;22.90;57.90;;;;;;4988002;28;20498;-51
2022/05/16 10:41:19;;;;;;;11.90;3.47;;;23.00;57.60;;;;;;4984010;28;20125;-51
2022/05/16 10:43:51;;;;;;;9.90;2.17;;;23.20;56.80;;;;;;4990147;28;20057;-50
2022/05/16 10:46:24;;;;;;;7.28;3.33;;;23.30;55.50;;;;;;4990453;28;20201;-48
2022/05/16 10:48:59;;;;;;;11.38;3.00;;;23.40;54.70;;;;;;4973866;28;20061;-48
2022/05/16 10:51:57;;;;;;;7.13;2.35;;;23.50;54.80;;;;;;4988733;28;20039;-48
2022/05/16 10:54:27;;;;;;;6.40;2.50;;;23.60;54.10;;;;;;4967685;28;20153;-48
2022/05/16 10:57:29;;;;;;;6.68;2.65;;;23.70;54.30;;;;;;4983947;28;20050;-51
2022/05/16 11:00:07;;;;;;;5.30;2.50;;;23.80;52.50;;;;;;4987785;28;20129;-50
2022/05/16 11:02:45;;;;;;;5.88;2.38;;;23.70;53.40;;;;;;4986740;28;20037;-51
2022/05/16 11:05:38;;;;;;;7.70;3.05;;;23.70;53.50;;;;;;4985484;28;20100;-48
2022/05/16 11:08:09;;;;;;;7.85;3.28;;;23.70;53.30;;;;;;4989868;28;20595;-50
2022/05/16 11:10:47;;;;;;;7.68;2.83;;;23.70;53.60;;;;;;4990081;28;20034;-52
2022/05/16 11:13:50;;;;;;;9.63;2.92;;;23.70;53.90;;;;;;4986552;28;20038;-46
2022/05/16 11:16:21;;;;;;;6.03;2.90;;;23.60;54.80;;;;;;4985918;28;20061;-50
2022/05/16 11:19:15;;;;;;;6.57;2.93;;;23.70;54.90;;;;;;4986285;28;20047;-49
2022/05/16 11:21:53;;;;;;;5.25;2.13;;;23.80;54.20;;;;;;4987692;28;20053;-52
2022/05/16 11:24:55;;;;;;;5.90;2.28;;;23.80;54.40;;;;;;4986639;28;20058;-52
2022/05/16 11:27:55;;;;;;;5.07;2.42;;;23.90;54.50;;;;;;4985219;28;20129;-45
2022/05/16 11:30:35;;;;;;;7.43;3.10;;;23.90;55.50;;;;;;4981816;28;20039;-46
2022/05/16 11:33:21;;;;;;;7.05;3.10;;;23.80;55.40;;;;;;4986242;28;20042;-50
2022/05/16 11:36:00;;;;;;;9.18;3.70;;;23.60;56.40;;;;;;4986191;28;20054;-48
2022/05/16 11:38:38;;;;;;;15.50;4.32;;;23.50;56.70;;;;;;4990416;28;20042;-51
2022/05/16 11:41:28;;;;;;;15.65;5.15;;;23.40;57.40;;;;;;4990630;28;20510;-50
2022/05/16 11:44:20;;;;;;;8.13;3.85;;;23.40;57.60;;;;;;4987892;28;20068;-51
2022/05/16 11:47:20;;;;;;;5.93;3.30;;;23.40;57.80;;;;;;4987339;28;20065;-51
2022/05/16 11:50:04;;;;;;;10.18;4.03;;;23.40;58.00;;;;;;4991004;28;20057;-47
2022/05/16 11:52:55;;;;;;;5.57;3.42;;;23.50;58.00;;;;;;4991081;28;20042;-51
2022/05/16 12:01:28;;;;;;;6.18;4.03;;;23.70;57.90;;;;;;4959514;28;20124;-50
2022/05/16 12:04:24;;;;;;;8.98;4.28;;;24.00;57.50;;;;;;4989750;28;20043;-49
2022/05/16 12:06:59;;;;;;;6.43;4.07;;;24.10;56.80;;;;;;4985288;28;20038;-54
2022/05/16 12:09:31;;;;;;;13.10;4.65;;;24.10;55.70;;;;;;4988832;28;20046;-50
2022/05/16 12:12:40;;;;;;;6.38;3.90;;;24.20;55.80;;;;;;4985427;28;20061;-52
2022/05/16 12:15:23;;;;;;;8.70;4.63;;;24.30;55.80;;;;;;4986668;28;20035;-51
2022/05/16 12:17:54;;;;;;;6.10;3.97;;;24.40;55.70;;;;;;4986920;28;20129;-51
2022/05/16 12:20:45;;;;;;;7.57;3.92;;;24.30;56.00;;;;;;4985981;28;20500;-50
2022/05/16 12:23:14;;;;;;;7.40;3.80;;;24.20;57.30;;;;;;4985617;28;20126;-51
2022/05/16 12:25:41;;;;;;;9.27;4.03;;;24.20;57.10;;;;;;4987654;28;20041;-48
2022/05/16 12:28:12;;;;;;;7.13;4.15;;;24.10;57.00;;;;;;4986996;28;20104;-51
2022/05/16 12:30:38;;;;;;;9.60;4.53;;;24.00;57.30;;;;;;4986831;28;20073;-47
2022/05/16 12:33:42;;;;;;;10.23;4.10;;;24.10;57.60;;;;;;4987527;28;20302;-49
2022/05/16 12:36:13;;;;;;;7.68;4.70;;;24.10;58.70;;;;;;4985276;28;20077;-49
2022/05/16 12:38:39;;;;;;;10.10;4.20;;;24.30;57.10;;;;;;4989070;28;20109;-51
2022/05/16 12:41:13;;;;;;;7.57;4.10;;;24.30;57.20;;;;;;4987876;28;20034;-50
2022/05/16 12:44:32;;;;;;;12.20;4.05;;;24.30;57.00;;;;;;4989607;28;20054;-52
2022/05/16 12:47:25;;;;;;;7.35;4.07;;;24.40;56.90;;;;;;4951978;28;20394;-49
2022/05/16 12:49:59;;;;;;;9.95;5.03;;;24.40;56.50;;;;;;4983376;28;20042;-49
2022/05/16 12:52:46;;;;;;;11.18;5.57;;;24.60;57.10;;;;;;4969282;28;20050;-49
2022/05/16 12:55:27;;;;;;;11.00;5.40;;;25.00;55.30;;;;;;4983175;28;20064;-50
2022/05/16 12:58:19;;;;;;;8.75;4.72;;;25.30;55.20;;;;;;4981682;28;20654;-52
2022/05/16 13:04:48;;;;;;;8.98;5.93;;;25.80;52.40;;;;;;4974858;28;20176;-48
2022/05/16 13:07:21;;;;;;;11.02;5.97;;;25.70;52.50;;;;;;4982274;28;20060;-51
2022/05/16 13:10:06;;;;;;;8.18;5.70;;;25.90;52.90;;;;;;4983007;28;20046;-52
2022/05/16 13:12:45;;;;;;;8.77;6.50;;;26.40;52.30;;;;;;4980694;28;20069;-51
2022/05/16 13:15:24;;;;;;;12.25;6.47;;;26.70;52.20;;;;;;4984574;28;20496;-51
2022/05/16 13:17:53;;;;;;;11.20;6.90;;;26.80;51.00;;;;;;4984550;28;20084;-52
2022/05/16 13:20:24;;;;;;;14.13;7.25;;;26.70;49.70;;;;;;4981552;28;20066;-49
2022/05/16 13:22:50;;;;;;;11.05;6.75;;;26.40;49.20;;;;;;4984827;28;20046;-52
2022/05/16 13:25:19;;;;;;;9.75;6.05;;;26.20;49.60;;;;;;4985106;28;20715;-50
2022/05/16 13:30:37;;;;;;;8.75;5.68;;;25.50;50.90;;;;;;4982540;28;20065;-53
2022/05/16 13:33:03;;;;;;;7.03;4.38;;;25.30;52.20;;;;;;4986380;28;22169;-49
2022/05/16 13:35:36;;;;;;;11.45;5.28;;;25.20;52.80;;;;;;4984331;28;20061;-51
2022/05/16 13:38:04;;;;;;;11.40;4.83;;;25.00;53.10;;;;;;4985072;28;20105;-51
2022/05/16 13:40:39;;;;;;;11.70;5.20;;;24.90;53.60;;;;;;4984303;28;20496;-50
2022/05/16 13:43:23;;;;;;;17.02;4.72;;;24.70;55.10;;;;;;4982907;28;20113;-52
2022/05/16 13:46:06;;;;;;;10.02;4.43;;;24.40;57.30;;;;;;4987409;28;20042;-51